Terminal Aerodrome Forecast
Issued by NWS Wilmington, OH

Current Version | Previous Version | Graphics & Text | Print | Product List | Glossary On
Versions: 1 2 3 4 5 6 7 8 9 10 11 12 13 14 15 16 17 18 19 20 21 22 23 24 25 26 27 28
000
FTUS41 KILN 201700
TAFDAY
TAF
KDAY 201732Z 2018/2118 21012G20KT P6SM VCSH BKN060
      TEMPO 2019/2021 5SM -TSRA BKN040CB
     FM210100 27008KT P6SM BKN035
     FM210500 31010KT P6SM OVC008
     FM211400 32012KT P6SM BKN015=

USA.gov is the U.S. government's official web portal to all federal, state and local government web resources and services.